Time;durP1;ratioP1;P1;durP2;ratioP2;P2;SDS_P1;SDS_P2;PMS_P1;PMS_P2;Temp;Humidity;BMP_temperature;BMP_pressure;BME280_temperature;BME280_humidity;BME280_pressure;Samples;Min_cycle;Max_cycle;Signal;HPM_P1;HPM_P2
2021/11/22 00:01:09;;;;;;;37.00;20.90;;;;;;;7.37;81.06;99461.52;228836;1193;142863;-72
2021/11/22 00:06:18;;;;;;;36.20;22.00;;;;;;;7.40;81.07;99466.38;229408;1193;140876;-79
2021/11/22 00:11:23;;;;;;;34.30;19.50;;;;;;;7.41;81.36;99467.59;230007;1192;140149;-72
2021/11/22 00:16:28;;;;;;;30.00;17.40;;;;;;;7.40;81.01;99470.73;229644;1190;139811;-72
2021/11/22 00:21:33;;;;;;;27.90;16.70;;;;;;;7.41;80.89;99468.65;230888;1190;141754;-74
2021/11/22 00:26:47;;;;;;;32.70;19.40;;;;;;;7.41;81.11;99478.20;230365;1192;139734;-76
2021/11/22 00:31:53;;;;;;;34.90;19.10;;;;;;;7.40;81.12;99482.70;230796;1190;138713;-75
2021/11/22 00:37:08;;;;;;;29.80;20.00;;;;;;;7.43;81.12;99484.71;229386;1191;140660;-74
2021/11/22 00:42:20;;;;;;;33.70;20.20;;;;;;;7.42;80.98;99493.12;230285;1191;139377;-72
2021/11/22 00:47:28;;;;;;;29.20;20.20;;;;;;;7.36;80.99;99496.28;229899;1192;139702;-72
2021/11/22 00:52:33;;;;;;;29.60;19.40;;;;;;;7.31;80.85;99503.58;230052;1190;141748;-73
2021/11/22 00:57:38;;;;;;;31.30;19.20;;;;;;;7.35;81.17;99514.32;229558;1192;139981;-72
2021/11/22 01:02:42;;;;;;;36.20;20.10;;;;;;;7.36;81.10;99516.76;230034;1190;139683;-72
2021/11/22 01:08:08;;;;;;;25.90;17.50;;;;;;;7.36;81.04;99523.16;229348;1190;138716;-77
2021/11/22 01:13:37;;;;;;;24.80;17.40;;;;;;;7.37;81.12;99520.02;229443;1192;140277;-72
2021/11/22 01:18:43;;;;;;;36.60;20.80;;;;;;;7.34;81.12;99525.13;229332;1190;141222;-74
2021/11/22 01:23:52;;;;;;;29.50;17.40;;;;;;;7.29;81.16;99522.48;229529;1192;141313;-71
2021/11/22 01:29:30;;;;;;;31.30;16.90;;;;;;;7.26;81.04;99528.05;230066;1191;140400;-73
2021/11/22 01:34:35;;;;;;;25.70;17.60;;;;;;;7.23;81.07;99528.48;228711;1190;139163;-72
2021/11/22 01:39:40;;;;;;;30.60;17.20;;;;;;;7.20;80.91;99520.92;229260;1193;140151;-71
2021/11/22 01:44:44;;;;;;;27.90;13.90;;;;;;;7.11;81.09;99524.83;230251;1192;140074;-75
2021/11/22 01:49:54;;;;;;;24.40;14.70;;;;;;;7.07;80.99;99529.42;230041;1190;139800;-72
2021/11/22 01:55:19;;;;;;;;;;;;;;;;;;;;;
2021/11/22 02:00:36;;;;;;;23.90;16.40;;;;;;;6.99;81.34;99542.96;229278;1192;141317;-71
2021/11/22 02:05:42;;;;;;;23.90;13.50;;;;;;;6.97;81.22;99541.95;230623;1190;140870;-73
2021/11/22 02:10:59;;;;;;;40.40;18.10;;;;;;;7.01;81.08;99544.14;230054;1191;150318;-72
2021/11/22 02:16:05;;;;;;;30.20;15.20;;;;;;;7.02;81.24;99545.35;230466;1191;138525;-74
2021/11/22 02:21:18;;;;;;;29.80;16.10;;;;;;;7.03;81.44;99551.77;231363;1190;138858;-75
2021/11/22 02:26:33;;;;;;;23.30;13.50;;;;;;;7.08;81.22;99560.89;230770;1191;141746;-73
2021/11/22 02:31:40;;;;;;;25.80;14.80;;;;;;;7.06;80.96;99565.64;229932;1191;141171;-73
2021/11/22 02:36:47;;;;;;;28.90;17.20;;;;;;;7.05;81.44;99573.73;228969;1192;139162;-73
2021/11/22 02:41:52;;;;;;;24.00;13.40;;;;;;;7.05;81.01;99581.05;228944;1192;140239;-75
2021/11/22 02:46:56;;;;;;;30.10;15.10;;;;;;;7.03;80.66;99580.67;230226;1192;139282;-72
2021/11/22 02:52:00;;;;;;;23.50;16.20;;;;;;;7.00;81.13;99589.11;229713;1192;140506;-73
2021/11/22 02:57:08;;;;;;;22.40;13.00;;;;;;;6.97;81.11;99592.06;229250;1192;139961;-71
2021/11/22 03:02:14;;;;;;;22.00;13.90;;;;;;;6.96;81.19;99599.09;229307;1192;140272;-70
2021/11/22 03:07:25;;;;;;;29.80;14.70;;;;;;;6.94;81.23;99597.67;229309;1192;141746;-72
2021/11/22 03:12:33;;;;;;;27.00;15.60;;;;;;;6.92;81.29;99605.95;228828;1192;139457;-71
2021/11/22 03:17:39;;;;;;;28.20;15.30;;;;;;;6.89;81.12;99609.68;228749;1192;139227;-73
2021/11/22 03:22:47;;;;;;;31.90;17.10;;;;;;;6.82;80.91;99614.08;229613;1192;139616;-72
2021/11/22 03:27:56;;;;;;;40.50;16.00;;;;;;;6.79;80.94;99612.51;229090;1192;139147;-72
2021/11/22 03:33:05;;;;;;;22.60;14.10;;;;;;;6.77;81.28;99614.92;228936;1192;139984;-71
2021/11/22 03:38:43;;;;;;;50.90;19.70;;;;;;;6.75;81.05;99617.41;229112;1192;141019;-71
2021/11/22 03:43:59;;;;;;;32.70;17.00;;;;;;;6.78;81.29;99621.23;230016;1192;139736;-72
2021/11/22 03:49:04;;;;;;;24.70;14.30;;;;;;;6.77;81.24;99623.80;230764;1190;139246;-72
2021/11/22 03:54:10;;;;;;;27.30;14.70;;;;;;;6.75;81.40;99629.73;229555;1191;139865;-71
2021/11/22 03:59:19;;;;;;;31.70;16.30;;;;;;;6.78;81.16;99638.20;229504;1190;140331;-71
2021/11/22 04:04:24;;;;;;;24.50;15.80;;;;;;;6.81;81.08;99646.95;230794;1190;139439;-73
2021/11/22 04:09:28;;;;;;;31.30;16.00;;;;;;;6.81;81.46;99654.96;230244;1191;140346;-72
2021/11/22 04:14:58;;;;;;;23.00;14.30;;;;;;;6.80;81.38;99656.77;230855;1192;140095;-70
2021/11/22 04:20:04;;;;;;;28.70;16.10;;;;;;;6.79;81.01;99661.41;231069;1191;140785;-72
2021/11/22 04:25:09;;;;;;;21.00;13.00;;;;;;;6.78;80.86;99672.42;231355;1191;139846;-73
2021/11/22 04:30:15;;;;;;;30.30;15.00;;;;;;;6.77;80.78;99671.98;231316;1184;139185;-73
2021/11/22 04:35:20;;;;;;;25.00;13.00;;;;;;;6.75;80.84;99675.33;230941;1192;140968;-72
2021/11/22 04:40:26;;;;;;;34.10;17.10;;;;;;;6.75;80.80;99681.30;229838;1192;141840;-72
2021/11/22 04:45:34;;;;;;;32.80;17.20;;;;;;;6.65;80.72;99687.46;230443;1191;139609;-73
2021/11/22 04:50:40;;;;;;;36.80;14.60;;;;;;;6.62;81.12;99692.40;230708;1192;139737;-72
2021/11/22 04:55:45;;;;;;;29.30;19.30;;;;;;;6.63;80.67;99699.94;229783;1190;140733;-71
2021/11/22 05:01:12;;;;;;;33.40;17.10;;;;;;;6.64;81.01;99705.11;229404;1192;139520;-70
2021/11/22 05:06:18;;;;;;;34.40;16.90;;;;;;;6.61;81.16;99716.57;229511;1190;138871;-71
2021/11/22 05:11:38;;;;;;;29.30;16.20;;;;;;;6.51;81.03;99724.01;229190;1192;139197;-71
2021/11/22 05:16:45;;;;;;;27.70;15.30;;;;;;;6.45;81.04;99720.60;229591;1192;139935;-69
2021/11/22 05:21:58;;;;;;;35.90;18.50;;;;;;;6.43;80.83;99722.92;229075;1191;140039;-70
2021/11/22 05:27:04;;;;;;;28.70;14.80;;;;;;;6.36;81.23;99731.30;229471;1190;138812;-70
2021/11/22 05:32:23;;;;;;;29.10;15.00;;;;;;;6.27;81.38;99737.95;229929;1191;148997;-71
2021/11/22 05:37:57;;;;;;;;;;;;;;;;;;;;;
2021/11/22 05:43:03;;;;;;;34.90;15.40;;;;;;;6.11;81.04;99745.96;230020;1191;139355;-72
2021/11/22 05:48:09;;;;;;;27.40;17.00;;;;;;;6.11;81.30;99754.48;229838;1190;138921;-71
2021/11/22 05:53:18;;;;;;;37.60;16.10;;;;;;;6.05;81.19;99760.23;229778;1191;139574;-70
2021/11/22 05:58:22;;;;;;;27.70;16.70;;;;;;;6.01;81.07;99763.08;230243;1190;141630;-72
2021/11/22 06:03:30;;;;;;;24.30;15.90;;;;;;;6.04;81.74;99774.16;230521;1190;140431;-71
2021/11/22 06:08:34;;;;;;;;;;;;;;;6.04;81.37;99785.19;230287;1192;139771;-70
2021/11/22 06:13:38;;;;;;;27.30;15.10;;;;;;;5.98;81.59;99788.64;229886;1192;126066;-72
2021/11/22 06:18:43;;;;;;;33.50;15.50;;;;;;;5.94;81.13;99798.48;229801;1192;140101;-72
2021/11/22 06:23:48;;;;;;;26.70;16.30;;;;;;;5.95;81.38;99800.27;231244;1192;140484;-73
2021/11/22 06:28:53;;;;;;;35.50;19.00;;;;;;;5.98;81.69;99800.94;230364;1191;141232;-71
2021/11/22 06:33:58;;;;;;;28.50;14.00;;;;;;;5.98;81.17;99808.10;231102;1191;138902;-74
2021/11/22 06:39:11;;;;;;;27.10;15.20;;;;;;;6.02;81.03;99812.70;230141;1191;141804;-73
2021/11/22 06:44:21;;;;;;;23.90;16.50;;;;;;;6.04;81.52;99822.03;230759;1191;139572;-74
2021/11/22 06:49:26;;;;;;;23.20;16.10;;;;;;;5.99;81.33;99836.52;229089;1191;140746;-73
2021/11/22 06:54:37;;;;;;;30.20;14.60;;;;;;;5.94;81.30;99843.30;230266;1191;140372;-73
2021/11/22 06:59:43;;;;;;;28.40;16.60;;;;;;;5.97;80.81;99849.66;229375;1191;162860;-74
2021/11/22 07:04:48;;;;;;;28.20;16.20;;;;;;;5.97;81.27;99856.05;230127;1183;140751;-74
2021/11/22 07:09:53;;;;;;;29.10;18.00;;;;;;;5.92;81.54;99870.36;229294;1192;140574;-74
2021/11/22 07:15:21;;;;;;;31.50;15.80;;;;;;;5.90;81.62;99886.61;230725;1191;138898;-74
2021/11/22 07:20:26;;;;;;;31.70;17.90;;;;;;;5.94;81.57;99896.75;229887;1190;140735;-75
2021/11/22 07:25:31;;;;;;;34.70;18.10;;;;;;;5.92;81.24;99904.43;229170;1191;141003;-73
2021/11/22 07:30:36;;;;;;;31.60;19.80;;;;;;;5.92;81.80;99907.08;229668;1191;220694;-74
2021/11/22 07:35:48;;;;;;;34.90;18.20;;;;;;;5.91;81.37;99908.70;229369;1190;139716;-74
2021/11/22 07:41:03;;;;;;;29.00;18.00;;;;;;;5.95;81.79;99915.15;230071;1192;143172;-71
2021/11/22 07:46:09;;;;;;;36.70;22.20;;;;;;;6.02;82.05;99912.13;230526;1192;140199;-74
2021/11/22 07:51:14;;;;;;;34.00;19.10;;;;;;;6.04;81.54;99920.47;230382;1191;139447;-74
2021/11/22 07:56:20;;;;;;;36.90;18.10;;;;;;;6.05;81.96;99926.25;229854;1192;140469;-73
2021/11/22 08:01:25;;;;;;;31.40;18.30;;;;;;;6.08;81.62;99932.73;229563;1192;163130;-74
2021/11/22 08:06:30;;;;;;;31.70;17.80;;;;;;;6.04;81.28;99939.11;230353;1190;205629;-72
2021/11/22 08:17:15;;;;;;;30.90;19.20;;;;;;;5.91;81.64;99961.05;229942;1190;140416;-73
2021/11/22 08:22:23;;;;;;;31.60;18.30;;;;;;;5.95;81.11;99974.83;230892;1191;141249;-72
2021/11/22 08:27:29;;;;;;;31.50;19.80;;;;;;;5.98;81.41;99981.67;231194;1191;140615;-73
2021/11/22 08:32:34;;;;;;;33.10;18.80;;;;;;;6.06;81.29;99978.98;230862;1191;139500;-73
2021/11/22 08:37:40;;;;;;;33.20;17.80;;;;;;;6.21;81.60;99981.52;231046;1191;139668;-73
2021/11/22 08:42:46;;;;;;;31.40;17.90;;;;;;;6.30;81.63;99989.66;230586;1190;140048;-73
2021/11/22 08:47:54;;;;;;;26.00;16.10;;;;;;;6.34;81.30;99997.42;229226;1192;144512;-69
2021/11/22 08:53:00;;;;;;;29.00;17.40;;;;;;;6.34;81.53;100006.66;229825;1191;140111;-72
2021/11/22 08:58:05;;;;;;;27.60;17.60;;;;;;;6.31;81.33;100008.36;229961;1191;139914;-69
2021/11/22 09:03:10;;;;;;;35.50;18.00;;;;;;;6.36;81.66;100014.37;229192;1192;141691;-72
2021/11/22 09:08:16;;;;;;;26.70;17.60;;;;;;;6.47;81.72;100009.60;229329;1192;229052;-73
2021/11/22 09:13:21;;;;;;;31.30;17.50;;;;;;;6.52;81.49;100018.49;229623;1192;139659;-71
2021/11/22 09:18:26;;;;;;;28.70;16.50;;;;;;;6.56;81.64;100019.85;229339;1192;140514;-72
2021/11/22 09:23:39;;;;;;;29.70;18.30;;;;;;;6.62;81.33;100023.94;229659;1190;141395;-72
2021/11/22 09:28:49;;;;;;;27.50;15.40;;;;;;;6.64;81.43;100022.07;230339;1190;140035;-73
2021/11/22 09:33:54;;;;;;;23.40;13.90;;;;;;;6.61;81.19;100019.25;229605;1191;140139;-72
2021/11/22 09:39:07;;;;;;;27.40;16.20;;;;;;;6.71;81.38;100021.83;229311;1192;231502;-73
2021/11/22 09:44:13;;;;;;;26.50;15.90;;;;;;;6.85;81.19;100017.87;229711;1192;139781;-72
2021/11/22 09:49:27;;;;;;;26.00;16.00;;;;;;;6.91;81.21;100020.90;230172;1191;139813;-72
2021/11/22 09:55:17;;;;;;;;;;;;;;;;;;;;;
2021/11/22 10:00:23;;;;;;;18.20;14.80;;;;;;;7.04;80.79;100032.39;230290;1191;142377;-72
2021/11/22 10:06:22;;;;;;;23.30;14.50;;;;;;;7.09;80.57;100031.48;229373;1191;139392;-71
2021/11/22 10:11:42;;;;;;;18.90;12.40;;;;;;;7.10;80.39;100037.89;230154;1190;139155;-72
2021/11/22 10:16:55;;;;;;;16.70;11.40;;;;;;;6.99;80.16;100038.14;229640;1191;142556;-73
2021/11/22 10:22:15;;;;;;;14.50;10.60;;;;;;;6.94;80.04;100041.61;230763;1191;140271;-72
2021/11/22 10:27:40;;;;;;;13.90;10.40;;;;;;;6.90;80.05;100049.71;231349;1191;139573;-71
2021/11/22 10:33:09;;;;;;;12.80;10.10;;;;;;;6.87;80.17;100052.45;231038;1191;140381;-69
2021/11/22 10:38:19;;;;;;;14.30;10.50;;;;;;;6.83;79.75;100056.80;230523;1191;141457;-73
2021/11/22 10:43:51;;;;;;;18.60;10.60;;;;;;;6.80;79.68;100056.27;230980;1190;140818;-73
2021/11/22 10:49:46;;;;;;;9.80;7.90;;;;;;;6.89;80.04;100063.17;229952;1192;140164;-72
2021/11/22 10:55:08;;;;;;;12.90;8.20;;;;;;;6.95;80.06;100065.14;230614;1191;139202;-73
2021/11/22 11:00:21;;;;;;;14.70;8.80;;;;;;;6.94;79.47;100068.16;230570;1192;140060;-73
2021/11/22 11:06:12;;;;;;;11.60;8.60;;;;;;;6.97;79.74;100072.24;229324;1192;150998;-72
2021/11/22 11:11:16;;;;;;;15.40;9.70;;;;;;;7.03;79.59;100076.52;229669;1192;139792;-71
2021/11/22 11:16:53;;;;;;;13.70;9.20;;;;;;;7.04;79.86;100083.31;229192;1192;138607;-70
2021/11/22 11:22:01;;;;;;;13.70;8.90;;;;;;;7.11;79.39;100080.59;229736;1192;140752;-71
2021/11/22 11:27:46;;;;;;;16.90;10.10;;;;;;;7.14;79.52;100090.63;229348;1191;139140;-72
2021/11/22 11:32:54;;;;;;;9.60;8.60;;;;;;;7.15;79.37;100085.54;230066;1192;140928;-71
2021/11/22 11:39:27;;;;;;;10.30;8.20;;;;;;;7.07;78.60;100086.54;229774;1191;139325;-73
2021/11/22 11:45:23;;;;;;;11.20;10.10;;;;;;;7.07;79.23;100090.29;229598;1191;140205;-69
2021/11/22 11:51:11;;;;;;;12.80;8.40;;;;;;;7.09;78.87;100088.78;230072;1192;139899;-73
2021/11/22 11:56:50;;;;;;;12.80;9.30;;;;;;;7.21;79.00;100085.70;230854;1192;139548;-72
2021/11/22 12:02:57;;;;;;;11.00;8.50;;;;;;;7.26;78.74;100086.08;229747;1192;140273;-72
2021/11/22 12:08:17;;;;;;;;;;;;;;;;;;;;;
2021/11/22 12:13:31;;;;;;;9.20;7.50;;;;;;;7.14;78.63;100096.70;229632;1193;141046;-73
2021/11/22 12:19:19;;;;;;;9.10;6.50;;;;;;;7.05;78.45;100096.36;230004;1191;139025;-71
2021/11/22 12:24:38;;;;;;;11.50;8.00;;;;;;;7.07;78.04;100102.85;230309;1192;140607;-72
2021/11/22 12:30:01;;;;;;;11.60;7.30;;;;;;;7.09;78.66;100104.13;230785;1191;139440;-73
2021/11/22 12:35:06;;;;;;;19.40;8.50;;;;;;;7.09;78.26;100108.73;230806;1184;139447;-72
2021/11/22 12:40:25;;;;;;;11.20;9.30;;;;;;;7.15;78.30;100116.69;231046;1190;139588;-72
2021/11/22 12:45:49;;;;;;;13.50;9.30;;;;;;;7.11;78.00;100120.40;230127;1192;139835;-72
2021/11/22 12:51:01;;;;;;;9.90;7.00;;;;;;;7.03;77.74;100118.80;230512;1192;139753;-73
2021/11/22 12:56:09;;;;;;;8.10;7.30;;;;;;;7.01;77.71;100125.77;230421;1192;139299;-72
2021/11/22 13:01:23;;;;;;;;;;;;;;;6.95;77.58;100129.52;230285;1192;139479;-74
2021/11/22 13:06:45;;;;;;;9.80;7.80;;;;;;;6.88;77.99;100133.91;229850;1192;125828;-73
2021/11/22 13:11:51;;;;;;;10.40;9.40;;;;;;;6.83;78.10;100138.95;229343;1191;139518;-73
2021/11/22 13:16:57;;;;;;;14.60;9.70;;;;;;;6.81;77.76;100142.07;230051;1191;150452;-72
2021/11/22 13:22:05;;;;;;;17.20;12.50;;;;;;;6.75;77.85;100145.95;230077;1190;138936;-71
2021/11/22 13:27:10;;;;;;;16.60;12.00;;;;;;;6.66;77.97;100149.76;229440;1191;141013;-73
2021/11/22 13:32:15;;;;;;;14.80;12.80;;;;;;;6.61;77.55;100158.21;229571;1192;140050;-70
2021/11/22 13:37:20;;;;;;;19.20;12.50;;;;;;;6.61;77.76;100163.46;229520;1192;140735;-74
2021/11/22 13:42:24;;;;;;;16.80;11.60;;;;;;;6.59;77.98;100168.52;229260;1192;142694;-72
2021/11/22 13:47:30;;;;;;;13.80;11.60;;;;;;;6.54;77.87;100178.39;230103;1192;140777;-71
2021/11/22 13:52:43;;;;;;;13.10;11.00;;;;;;;6.48;77.89;100182.39;230042;1191;140132;-74
2021/11/22 13:57:49;;;;;;;17.70;11.80;;;;;;;6.48;77.81;100184.84;230127;1191;153418;-73
2021/11/22 14:03:31;;;;;;;14.90;9.80;;;;;;;6.49;77.70;100189.45;229911;1192;141162;-72
2021/11/22 14:08:51;;;;;;;;;;;;;;;;;;;;;
2021/11/22 14:14:17;;;;;;;10.10;9.00;;;;;;;6.33;77.35;100198.55;230079;1192;138697;-71
2021/11/22 14:19:25;;;;;;;11.40;8.20;;;;;;;6.20;77.29;100205.87;230539;1192;138590;-73
2021/11/22 14:25:06;;;;;;;14.70;10.00;;;;;;;6.15;77.23;100205.84;230492;1192;140184;-71
2021/11/22 14:30:14;;;;;;;12.90;9.50;;;;;;;6.09;77.32;100213.14;230530;1191;141467;-71
2021/11/22 14:35:29;;;;;;;22.90;16.40;;;;;;;5.99;77.39;100216.70;231224;1190;139848;-72
2021/11/22 14:40:35;;;;;;;12.70;9.10;;;;;;;5.84;77.38;100220.35;231224;1191;139905;-75
2021/11/22 14:45:44;;;;;;;10.60;8.00;;;;;;;5.74;77.11;100225.61;231156;1192;138524;-72
2021/11/22 14:51:32;;;;;;;11.40;10.10;;;;;;;5.74;77.32;100231.39;230994;1190;139611;-74
2021/11/22 14:56:44;;;;;;;11.80;8.00;;;;;;;5.70;77.17;100239.45;231095;1192;139410;-75
2021/11/22 15:01:59;;;;;;;11.00;8.10;;;;;;;5.63;77.04;100243.01;230998;1191;139304;-76
2021/11/22 15:07:14;;;;;;;14.40;9.00;;;;;;;5.49;77.06;100244.63;230190;1191;140918;-74
2021/11/22 15:12:30;;;;;;;14.10;8.90;;;;;;;5.34;76.93;100246.27;229991;1192;220069;-73
2021/11/22 15:17:36;;;;;;;16.50;8.90;;;;;;;5.20;76.79;100252.02;229645;1192;139410;-72
2021/11/22 15:22:40;;;;;;;24.90;12.50;;;;;;;5.00;76.61;100256.11;229035;1193;139806;-73
2021/11/22 15:27:52;;;;;;;18.00;11.10;;;;;;;4.76;76.77;100258.59;229586;1191;138990;-72
2021/11/22 15:33:20;;;;;;;13.40;8.50;;;;;;;4.52;76.44;100261.23;229975;1184;141548;-71
2021/11/22 15:38:28;;;;;;;23.30;13.10;;;;;;;4.22;76.44;100266.50;229589;1192;139950;-73
2021/11/22 15:43:36;;;;;;;16.60;10.90;;;;;;;4.07;76.36;100278.03;229567;1192;221557;-72
2021/11/22 15:48:47;;;;;;;19.60;11.40;;;;;;;3.89;76.56;100281.70;229034;1192;141399;-72
2021/11/22 15:53:52;;;;;;;22.70;12.50;;;;;;;3.73;76.79;100291.11;229225;1192;140683;-70
2021/11/22 15:58:58;;;;;;;14.90;10.20;;;;;;;3.60;76.94;100295.21;229740;1192;139771;-70
2021/11/22 16:04:04;;;;;;;12.10;6.70;;;;;;;3.52;76.93;100300.92;229286;1192;141850;-68
2021/11/22 16:09:23;;;;;;;9.40;6.50;;;;;;;3.36;76.80;100302.73;229270;1192;141269;-69
2021/11/22 16:14:28;;;;;;;14.20;7.60;;;;;;;3.23;77.36;100301.43;230096;1191;139450;-70
2021/11/22 16:19:33;;;;;;;10.50;5.90;;;;;;;3.12;77.16;100308.27;229733;1190;138693;-70
2021/11/22 16:24:39;;;;;;;9.20;5.50;;;;;;;3.02;77.31;100321.14;229618;1192;160269;-69
2021/11/22 16:29:43;;;;;;;13.60;7.20;;;;;;;2.93;77.04;100329.17;230666;1190;138900;-71
2021/11/22 16:34:50;;;;;;;14.90;8.10;;;;;;;2.90;77.41;100336.52;230270;1190;141684;-70
2021/11/22 16:39:55;;;;;;;10.20;5.20;;;;;;;2.81;77.43;100335.70;230992;1191;138699;-70
2021/11/22 16:45:00;;;;;;;9.60;5.00;;;;;;;2.73;77.55;100337.41;230473;1190;138761;-69
2021/11/22 16:50:05;;;;;;;9.50;6.00;;;;;;;2.68;77.68;100339.14;228896;1192;139112;-68
2021/11/22 16:55:12;;;;;;;11.80;5.60;;;;;;;2.69;77.64;100344.36;230769;1191;139588;-68
2021/11/22 17:00:28;;;;;;;13.10;7.70;;;;;;;2.67;77.93;100349.96;230011;1190;140609;-68
2021/11/22 17:05:50;;;;;;;16.00;9.20;;;;;;;2.64;78.00;100363.62;230435;1191;138973;-69
2021/11/22 17:11:09;;;;;;;11.50;8.50;;;;;;;2.52;77.84;100368.10;230456;1192;139889;-68
2021/11/22 17:16:20;;;;;;;12.30;6.80;;;;;;;2.39;77.67;100379.89;229779;1190;138882;-68
2021/11/22 17:21:25;;;;;;;13.30;8.40;;;;;;;2.34;77.52;100383.92;229847;1190;139081;-68
2021/11/22 17:26:30;;;;;;;12.50;8.10;;;;;;;2.27;77.67;100388.73;230000;1190;139550;-69
2021/11/22 17:31:38;;;;;;;12.50;8.90;;;;;;;2.22;78.05;100390.66;229436;1192;138960;-69
2021/11/22 17:36:46;;;;;;;18.50;9.70;;;;;;;2.12;77.93;100392.29;228819;1190;138985;-70
2021/11/22 17:41:51;;;;;;;14.70;8.60;;;;;;;2.05;78.25;100396.52;229586;1192;139261;-70
2021/11/22 17:47:23;;;;;;;18.20;8.90;;;;;;;2.06;78.39;100401.69;229469;1192;140543;-69
2021/11/22 17:52:28;;;;;;;18.80;11.30;;;;;;;2.06;78.44;100408.95;229583;1193;140210;-69
2021/11/22 17:57:32;;;;;;;14.10;9.10;;;;;;;2.05;78.61;100410.10;230115;1192;140464;-70
2021/11/22 18:02:37;;;;;;;15.60;8.40;;;;;;;2.04;78.86;100411.61;230045;1177;141762;-69
2021/11/22 18:07:41;;;;;;;15.50;9.90;;;;;;;2.07;78.96;100418.33;230444;1191;138790;-68
2021/11/22 18:12:49;;;;;;;16.30;9.90;;;;;;;2.19;79.06;100422.79;230291;1192;141526;-69
2021/11/22 18:17:53;;;;;;;15.80;12.30;;;;;;;2.31;79.56;100423.55;229939;1191;139825;-68
2021/11/22 18:23:18;;;;;;;14.60;10.50;;;;;;;2.36;79.32;100426.55;229822;1191;139010;-68
2021/11/22 18:28:22;;;;;;;17.30;11.20;;;;;;;2.36;79.48;100431.33;229779;1192;139157;-69
2021/11/22 18:33:27;;;;;;;32.10;14.20;;;;;;;2.36;79.37;100431.81;230006;1192;139687;-68
2021/11/22 18:38:46;;;;;;;29.20;15.10;;;;;;;2.40;79.27;100434.09;229612;1192;141490;-68
2021/11/22 18:44:07;;;;;;;27.20;16.50;;;;;;;2.39;79.32;100427.80;231285;1191;141009;-68
2021/11/22 18:49:14;;;;;;;36.40;19.50;;;;;;;2.35;79.42;100433.82;231362;1192;139621;-69
2021/11/22 18:54:21;;;;;;;43.40;22.90;;;;;;;2.37;79.42;100442.23;231187;1192;139789;-70
2021/11/22 18:59:25;;;;;;;39.90;23.70;;;;;;;2.46;79.52;100447.19;230416;1192;141406;-69
2021/11/22 19:04:30;;;;;;;29.00;14.40;;;;;;;2.54;79.47;100451.14;229925;1192;141293;-68
2021/11/22 19:09:36;;;;;;;26.40;13.80;;;;;;;2.55;79.59;100451.47;231111;1192;138791;-69
2021/11/22 19:14:45;;;;;;;;;;;;;;;2.53;79.55;100455.09;229241;1190;139243;-69
2021/11/22 19:19:50;;;;;;;;;;;;;;;2.46;79.69;100460.41;230572;1190;125469;-68
2021/11/22 19:25:00;;;;;;;24.70;16.00;;;;;;;2.40;79.85;100466.61;230990;1190;127210;-70
2021/11/22 19:30:20;;;;;;;20.20;13.10;;;;;;;2.46;79.61;100464.23;229645;1190;140321;-68
2021/11/22 19:35:27;;;;;;;30.70;17.40;;;;;;;2.49;79.81;100466.73;229920;1190;139480;-68
2021/11/22 19:40:33;;;;;;;24.90;16.40;;;;;;;2.50;79.81;100465.58;229185;1191;139262;-68
2021/11/22 19:45:42;;;;;;;24.70;15.10;;;;;;;2.44;79.72;100471.15;229413;1177;139586;-68
2021/11/22 19:50:57;;;;;;;29.80;15.60;;;;;;;2.40;79.47;100476.82;229938;1192;139606;-69
2021/11/22 19:56:27;;;;;;;22.20;15.10;;;;;;;2.32;79.26;100477.00;229931;1177;139200;-70
2021/11/22 20:01:32;;;;;;;21.10;13.90;;;;;;;2.24;79.38;100474.71;229966;1190;140185;-69
2021/11/22 20:06:38;;;;;;;28.90;18.10;;;;;;;2.12;79.32;100486.44;230547;1191;141309;-68
2021/11/22 20:11:52;;;;;;;23.80;15.10;;;;;;;2.03;79.29;100489.42;230147;1190;139812;-69
2021/11/22 20:16:58;;;;;;;31.80;17.90;;;;;;;1.98;79.20;100493.57;229531;1190;139746;-70
2021/11/22 20:22:24;;;;;;;33.90;17.90;;;;;;;1.92;79.38;100494.04;230895;1190;139752;-72
2021/11/22 20:27:29;;;;;;;32.70;17.40;;;;;;;1.83;79.45;100492.38;230540;1191;140318;-68
2021/11/22 20:32:41;;;;;;;36.20;16.80;;;;;;;1.78;79.40;100501.61;230256;1190;139567;-69
2021/11/22 20:37:47;;;;;;;23.90;15.00;;;;;;;1.76;79.35;100497.30;229934;1190;141206;-70
2021/11/22 20:42:52;;;;;;;35.10;18.50;;;;;;;1.64;79.06;100506.73;229981;1190;139397;-70
2021/11/22 20:47:58;;;;;;;39.20;20.50;;;;;;;1.49;79.01;100518.95;231111;1190;140949;-71
2021/11/22 20:53:01;;;;;;;35.20;19.20;;;;;;;1.35;78.89;100526.76;231265;1190;142103;-71
2021/11/22 20:58:10;;;;;;;33.40;16.80;;;;;;;1.25;78.94;100534.18;231160;1190;139002;-69
2021/11/22 21:03:40;;;;;;;29.10;17.90;;;;;;;1.24;78.90;100538.90;230032;1190;140338;-68
2021/11/22 21:08:48;;;;;;;35.80;22.40;;;;;;;1.20;79.10;100543.36;230137;1190;139709;-71
2021/11/22 21:14:41;;;;;;;38.40;21.40;;;;;;;1.15;79.36;100542.11;230412;1190;140180;-72
2021/11/22 21:19:46;;;;;;;38.20;17.70;;;;;;;1.08;79.35;100545.67;229642;1192;139870;-71
2021/11/22 21:25:00;;;;;;;28.20;14.90;;;;;;;1.05;79.14;100556.58;228951;1190;140763;-71
2021/11/22 21:30:11;;;;;;;21.90;17.40;;;;;;;0.96;79.21;100564.41;229501;1190;140581;-73
2021/11/22 21:35:19;;;;;;;23.60;15.10;;;;;;;0.88;79.35;100565.82;229584;1190;139909;-70
2021/11/22 21:40:27;;;;;;;21.20;12.50;;;;;;;0.86;79.79;100568.84;229184;1190;141714;-69
2021/11/22 21:45:33;;;;;;;29.00;13.60;;;;;;;0.92;80.21;100571.34;229129;1192;140482;-69
2021/11/22 21:50:38;;;;;;;21.10;13.60;;;;;;;1.00;80.71;100579.27;229687;1192;140556;-69
2021/11/22 21:55:43;;;;;;;25.70;12.70;;;;;;;1.08;80.72;100575.38;229635;1190;139837;-68
2021/11/22 22:00:52;;;;;;;17.90;8.80;;;;;;;1.19;81.01;100570.55;229384;1190;139837;-70
2021/11/22 22:06:00;;;;;;;15.60;7.70;;;;;;;1.35;81.41;100575.06;230106;1190;138985;-69
2021/11/22 22:11:06;;;;;;;19.20;8.70;;;;;;;1.53;81.61;100576.94;230094;1190;139026;-68
2021/11/22 22:16:10;;;;;;;16.40;6.90;;;;;;;1.70;81.76;100571.88;230240;1190;139055;-69
2021/11/22 22:21:15;;;;;;;12.00;7.30;;;;;;;1.80;81.73;100565.10;230508;1190;138290;-69
2021/11/22 22:26:47;;;;;;;9.90;6.40;;;;;;;1.92;81.77;100565.56;230258;1190;140237;-70
2021/11/22 22:31:52;;;;;;;9.30;5.70;;;;;;;2.06;81.52;100569.89;230202;1190;141950;-70
2021/11/22 22:36:57;;;;;;;11.90;6.40;;;;;;;2.13;81.53;100567.55;230104;1190;140117;-68
2021/11/22 22:42:05;;;;;;;6.60;4.50;;;;;;;2.17;81.69;100571.33;230354;1190;140448;-69
2021/11/22 22:47:11;;;;;;;8.30;4.80;;;;;;;2.25;81.39;100570.70;229542;1192;140235;-69
2021/11/22 22:52:15;;;;;;;6.50;5.10;;;;;;;2.36;81.18;100574.95;231182;1190;139727;-69
2021/11/22 22:57:40;;;;;;;7.50;4.50;;;;;;;2.43;81.30;100574.30;231195;1190;140148;-69
2021/11/22 23:02:43;;;;;;;9.30;5.40;;;;;;;2.46;81.16;100575.80;231332;1191;138989;-70
2021/11/22 23:07:48;;;;;;;9.80;5.40;;;;;;;2.48;81.16;100571.73;230585;1190;139735;-70
2021/11/22 23:13:02;;;;;;;8.00;4.60;;;;;;;2.54;80.72;100565.69;230662;1190;139924;-69
2021/11/22 23:18:09;;;;;;;8.00;6.50;;;;;;;2.57;80.67;100559.84;230194;1190;140281;-70
2021/11/22 23:23:15;;;;;;;8.60;5.30;;;;;;;2.56;80.81;100565.66;230677;1192;138808;-69
2021/11/22 23:28:32;;;;;;;5.30;4.70;;;;;;;2.53;80.70;100577.14;229299;1190;138292;-68
2021/11/22 23:33:40;;;;;;;10.10;5.50;;;;;;;2.50;80.32;100574.30;228939;1192;140910;-68
2021/11/22 23:39:10;;;;;;;11.50;4.90;;;;;;;2.47;80.43;100577.81;229068;1192;140200;-69
2021/11/22 23:44:18;;;;;;;7.60;5.50;;;;;;;2.47;80.43;100577.36;229499;1191;139578;-69
2021/11/22 23:49:46;;;;;;;;;;;;;;;2.47;80.61;100579.16;229333;1192;139365;-70
2021/11/22 23:54:51;;;;;;;8.60;5.00;;;;;;;2.48;80.71;100579.95;230050;1191;125844;-68
